sensor_id;sensor_type;location;lat;lon;timestamp;P1;durP1;ratioP1;P2;durP2;ratioP2
72559;SDS011;62987;52.382;9.752;2023-01-29T00:02:38;16.40;;;6.05;;
72559;SDS011;62987;52.382;9.752;2023-01-29T00:05:07;14.30;;;6.40;;
72559;SDS011;62987;52.382;9.752;2023-01-29T00:07:53;14.60;;;5.47;;
72559;SDS011;62987;52.382;9.752;2023-01-29T00:10:21;13.48;;;5.50;;
72559;SDS011;62987;52.382;9.752;2023-01-29T00:12:49;11.98;;;5.15;;
72559;SDS011;62987;52.382;9.752;2023-01-29T00:15:18;12.75;;;4.88;;
72559;SDS011;62987;52.382;9.752;2023-01-29T00:17:46;15.23;;;6.00;;
72559;SDS011;62987;52.382;9.752;2023-01-29T00:20:16;12.23;;;5.20;;
72559;SDS011;62987;52.382;9.752;2023-01-29T00:22:44;13.70;;;6.03;;
72559;SDS011;62987;52.382;9.752;2023-01-29T00:25:12;12.77;;;4.93;;
72559;SDS011;62987;52.382;9.752;2023-01-29T00:27:43;15.27;;;6.03;;
72559;SDS011;62987;52.382;9.752;2023-01-29T00:30:12;13.57;;;5.95;;
72559;SDS011;62987;52.382;9.752;2023-01-29T00:32:42;12.95;;;5.43;;
72559;SDS011;62987;52.382;9.752;2023-01-29T00:35:13;15.70;;;5.80;;
72559;SDS011;62987;52.382;9.752;2023-01-29T00:37:42;18.33;;;6.55;;
72559;SDS011;62987;52.382;9.752;2023-01-29T00:40:10;12.05;;;5.07;;
72559;SDS011;62987;52.382;9.752;2023-01-29T00:42:39;16.05;;;6.65;;
72559;SDS011;62987;52.382;9.752;2023-01-29T00:45:25;13.77;;;5.60;;
72559;SDS011;62987;52.382;9.752;2023-01-29T00:47:53;17.33;;;6.45;;
72559;SDS011;62987;52.382;9.752;2023-01-29T00:50:21;14.45;;;6.00;;
72559;SDS011;62987;52.382;9.752;2023-01-29T00:52:50;13.07;;;5.93;;
72559;SDS011;62987;52.382;9.752;2023-01-29T00:55:20;12.57;;;6.75;;
72559;SDS011;62987;52.382;9.752;2023-01-29T00:57:51;13.68;;;4.93;;
72559;SDS011;62987;52.382;9.752;2023-01-29T01:00:19;12.38;;;5.22;;
72559;SDS011;62987;52.382;9.752;2023-01-29T01:02:47;15.75;;;6.60;;
72559;SDS011;62987;52.382;9.752;2023-01-29T01:05:33;12.32;;;5.25;;
72559;SDS011;62987;52.382;9.752;2023-01-29T01:08:03;17.50;;;6.88;;
72559;SDS011;62987;52.382;9.752;2023-01-29T01:10:59;14.35;;;4.88;;
72559;SDS011;62987;52.382;9.752;2023-01-29T01:13:28;15.80;;;6.05;;
72559;SDS011;62987;52.382;9.752;2023-01-29T01:15:58;15.20;;;6.28;;
72559;SDS011;62987;52.382;9.752;2023-01-29T01:18:28;14.52;;;6.28;;
72559;SDS011;62987;52.382;9.752;2023-01-29T01:20:59;14.45;;;5.57;;
72559;SDS011;62987;52.382;9.752;2023-01-29T01:23:28;15.30;;;6.13;;
72559;SDS011;62987;52.382;9.752;2023-01-29T01:25:56;14.05;;;5.85;;
72559;SDS011;62987;52.382;9.752;2023-01-29T01:28:25;14.38;;;5.40;;
72559;SDS011;62987;52.382;9.752;2023-01-29T01:30:53;13.70;;;5.50;;
72559;SDS011;62987;52.382;9.752;2023-01-29T01:33:21;11.70;;;5.40;;
72559;SDS011;62987;52.382;9.752;2023-01-29T01:35:50;12.40;;;5.10;;
72559;SDS011;62987;52.382;9.752;2023-01-29T01:38:18;13.02;;;5.75;;
72559;SDS011;62987;52.382;9.752;2023-01-29T01:40:47;14.80;;;5.75;;
72559;SDS011;62987;52.382;9.752;2023-01-29T01:43:15;14.77;;;5.68;;
72559;SDS011;62987;52.382;9.752;2023-01-29T01:45:46;13.20;;;6.20;;
72559;SDS011;62987;52.382;9.752;2023-01-29T01:48:14;12.77;;;6.15;;
72559;SDS011;62987;52.382;9.752;2023-01-29T01:50:47;16.65;;;6.18;;
72559;SDS011;62987;52.382;9.752;2023-01-29T01:53:21;11.27;;;5.57;;
72559;SDS011;62987;52.382;9.752;2023-01-29T01:55:56;13.43;;;5.68;;
72559;SDS011;62987;52.382;9.752;2023-01-29T01:58:29;11.75;;;4.70;;
72559;SDS011;62987;52.382;9.752;2023-01-29T02:01:01;16.88;;;6.30;;
72559;SDS011;62987;52.382;9.752;2023-01-29T02:03:30;15.50;;;5.38;;
72559;SDS011;62987;52.382;9.752;2023-01-29T02:06:19;15.07;;;6.78;;
72559;SDS011;62987;52.382;9.752;2023-01-29T02:09:07;12.32;;;6.50;;
72559;SDS011;62987;52.382;9.752;2023-01-29T02:12:04;14.45;;;6.40;;
72559;SDS011;62987;52.382;9.752;2023-01-29T02:14:34;12.57;;;5.38;;
72559;SDS011;62987;52.382;9.752;2023-01-29T02:17:07;16.20;;;5.57;;
72559;SDS011;62987;52.382;9.752;2023-01-29T02:19:40;13.55;;;5.05;;
72559;SDS011;62987;52.382;9.752;2023-01-29T02:25:22;13.98;;;5.10;;
72559;SDS011;62987;52.382;9.752;2023-01-29T02:28:19;12.90;;;6.45;;
72559;SDS011;62987;52.382;9.752;2023-01-29T02:30:55;12.43;;;5.35;;
72559;SDS011;62987;52.382;9.752;2023-01-29T02:33:34;14.02;;;5.88;;
72559;SDS011;62987;52.382;9.752;2023-01-29T02:36:10;16.00;;;5.53;;
72559;SDS011;62987;52.382;9.752;2023-01-29T02:38:48;13.43;;;5.65;;
72559;SDS011;62987;52.382;9.752;2023-01-29T02:41:27;11.10;;;4.82;;
72559;SDS011;62987;52.382;9.752;2023-01-29T02:44:04;12.45;;;5.05;;
72559;SDS011;62987;52.382;9.752;2023-01-29T02:46:40;14.55;;;5.78;;
72559;SDS011;62987;52.382;9.752;2023-01-29T02:49:17;11.25;;;5.25;;
72559;SDS011;62987;52.382;9.752;2023-01-29T02:51:54;13.90;;;4.90;;
72559;SDS011;62987;52.382;9.752;2023-01-29T02:54:30;12.25;;;5.05;;
72559;SDS011;62987;52.382;9.752;2023-01-29T02:57:07;14.20;;;5.40;;
72559;SDS011;62987;52.382;9.752;2023-01-29T02:59:44;12.15;;;4.75;;
72559;SDS011;62987;52.382;9.752;2023-01-29T03:02:17;12.15;;;5.05;;
72559;SDS011;62987;52.382;9.752;2023-01-29T03:04:51;13.02;;;5.13;;
72559;SDS011;62987;52.382;9.752;2023-01-29T03:07:25;13.75;;;5.30;;
72559;SDS011;62987;52.382;9.752;2023-01-29T03:10:20;14.75;;;5.82;;
72559;SDS011;62987;52.382;9.752;2023-01-29T03:12:55;13.65;;;4.97;;
72559;SDS011;62987;52.382;9.752;2023-01-29T03:15:29;17.05;;;5.28;;
72559;SDS011;62987;52.382;9.752;2023-01-29T03:18:31;12.77;;;5.85;;
72559;SDS011;62987;52.382;9.752;2023-01-29T03:21:07;15.57;;;5.75;;
72559;SDS011;62987;52.382;9.752;2023-01-29T03:23:54;13.98;;;6.07;;
72559;SDS011;62987;52.382;9.752;2023-01-29T03:26:42;14.95;;;5.03;;
72559;SDS011;62987;52.382;9.752;2023-01-29T03:29:33;13.85;;;5.88;;
72559;SDS011;62987;52.382;9.752;2023-01-29T03:32:29;17.63;;;5.43;;
72559;SDS011;62987;52.382;9.752;2023-01-29T03:34:59;13.77;;;5.50;;
72559;SDS011;62987;52.382;9.752;2023-01-29T03:37:32;15.15;;;5.18;;
72559;SDS011;62987;52.382;9.752;2023-01-29T03:42:37;13.02;;;5.63;;
72559;SDS011;62987;52.382;9.752;2023-01-29T03:45:16;13.32;;;5.38;;
72559;SDS011;62987;52.382;9.752;2023-01-29T03:47:56;15.77;;;5.75;;
72559;SDS011;62987;52.382;9.752;2023-01-29T03:50:33;13.05;;;6.38;;
72559;SDS011;62987;52.382;9.752;2023-01-29T03:53:07;14.45;;;5.60;;
72559;SDS011;62987;52.382;9.752;2023-01-29T03:55:46;15.00;;;5.88;;
72559;SDS011;62987;52.382;9.752;2023-01-29T03:58:22;13.40;;;6.18;;
72559;SDS011;62987;52.382;9.752;2023-01-29T04:00:57;14.82;;;6.80;;
72559;SDS011;62987;52.382;9.752;2023-01-29T04:03:32;21.95;;;6.10;;
72559;SDS011;62987;52.382;9.752;2023-01-29T04:08:45;14.85;;;6.68;;
72559;SDS011;62987;52.382;9.752;2023-01-29T04:11:19;15.18;;;6.22;;
72559;SDS011;62987;52.382;9.752;2023-01-29T04:13:49;14.30;;;5.90;;
72559;SDS011;62987;52.382;9.752;2023-01-29T04:16:19;11.05;;;5.05;;
72559;SDS011;62987;52.382;9.752;2023-01-29T04:19:24;11.98;;;5.18;;
72559;SDS011;62987;52.382;9.752;2023-01-29T04:21:55;14.35;;;5.70;;
72559;SDS011;62987;52.382;9.752;2023-01-29T04:24:30;17.13;;;6.15;;
72559;SDS011;62987;52.382;9.752;2023-01-29T04:27:02;19.38;;;6.60;;
72559;SDS011;62987;52.382;9.752;2023-01-29T04:29:44;13.95;;;6.00;;
72559;SDS011;62987;52.382;9.752;2023-01-29T04:32:25;13.88;;;6.18;;
72559;SDS011;62987;52.382;9.752;2023-01-29T04:37:35;12.30;;;5.68;;
72559;SDS011;62987;52.382;9.752;2023-01-29T04:40:09;11.90;;;4.93;;
72559;SDS011;62987;52.382;9.752;2023-01-29T04:42:48;10.88;;;5.35;;
72559;SDS011;62987;52.382;9.752;2023-01-29T04:45:27;13.77;;;5.35;;
72559;SDS011;62987;52.382;9.752;2023-01-29T04:48:05;14.27;;;4.72;;
72559;SDS011;62987;52.382;9.752;2023-01-29T04:50:49;13.45;;;6.00;;
72559;SDS011;62987;52.382;9.752;2023-01-29T04:53:24;12.68;;;5.43;;
72559;SDS011;62987;52.382;9.752;2023-01-29T04:56:00;11.07;;;5.22;;
72559;SDS011;62987;52.382;9.752;2023-01-29T04:58:36;10.20;;;4.53;;
72559;SDS011;62987;52.382;9.752;2023-01-29T05:01:09;13.43;;;5.90;;
72559;SDS011;62987;52.382;9.752;2023-01-29T05:03:41;12.65;;;4.45;;
72559;SDS011;62987;52.382;9.752;2023-01-29T05:06:14;14.32;;;5.60;;
72559;SDS011;62987;52.382;9.752;2023-01-29T05:08:43;12.88;;;5.13;;
72559;SDS011;62987;52.382;9.752;2023-01-29T05:11:12;11.75;;;4.40;;
72559;SDS011;62987;52.382;9.752;2023-01-29T05:13:41;12.70;;;5.47;;
72559;SDS011;62987;52.382;9.752;2023-01-29T05:16:12;13.02;;;5.10;;
72559;SDS011;62987;52.382;9.752;2023-01-29T05:18:44;11.23;;;5.05;;
72559;SDS011;62987;52.382;9.752;2023-01-29T05:21:14;16.73;;;5.95;;
72559;SDS011;62987;52.382;9.752;2023-01-29T05:23:43;12.07;;;4.78;;
72559;SDS011;62987;52.382;9.752;2023-01-29T05:26:18;12.25;;;4.45;;
72559;SDS011;62987;52.382;9.752;2023-01-29T05:29:04;11.05;;;4.45;;
72559;SDS011;62987;52.382;9.752;2023-01-29T05:31:32;13.63;;;5.55;;
72559;SDS011;62987;52.382;9.752;2023-01-29T05:34:00;14.32;;;6.10;;
72559;SDS011;62987;52.382;9.752;2023-01-29T05:36:30;12.15;;;4.97;;
72559;SDS011;62987;52.382;9.752;2023-01-29T05:38:58;12.35;;;4.85;;
72559;SDS011;62987;52.382;9.752;2023-01-29T05:41:26;14.15;;;4.97;;
72559;SDS011;62987;52.382;9.752;2023-01-29T05:43:54;12.30;;;4.72;;
72559;SDS011;62987;52.382;9.752;2023-01-29T05:46:22;13.32;;;4.93;;
72559;SDS011;62987;52.382;9.752;2023-01-29T05:48:51;10.80;;;3.67;;
72559;SDS011;62987;52.382;9.752;2023-01-29T05:51:19;14.07;;;5.22;;
72559;SDS011;62987;52.382;9.752;2023-01-29T05:53:48;12.65;;;5.25;;
72559;SDS011;62987;52.382;9.752;2023-01-29T05:56:19;14.13;;;5.10;;
72559;SDS011;62987;52.382;9.752;2023-01-29T05:58:48;12.98;;;5.22;;
72559;SDS011;62987;52.382;9.752;2023-01-29T06:01:16;13.55;;;5.22;;
72559;SDS011;62987;52.382;9.752;2023-01-29T06:03:46;15.40;;;5.60;;
72559;SDS011;62987;52.382;9.752;2023-01-29T06:06:14;13.32;;;4.70;;
72559;SDS011;62987;52.382;9.752;2023-01-29T06:08:43;13.77;;;5.72;;
72559;SDS011;62987;52.382;9.752;2023-01-29T06:11:13;12.73;;;4.70;;
72559;SDS011;62987;52.382;9.752;2023-01-29T06:13:41;13.00;;;5.13;;
72559;SDS011;62987;52.382;9.752;2023-01-29T06:16:10;15.95;;;5.13;;
72559;SDS011;62987;52.382;9.752;2023-01-29T06:18:40;14.15;;;5.47;;
72559;SDS011;62987;52.382;9.752;2023-01-29T06:21:09;14.02;;;6.32;;
72559;SDS011;62987;52.382;9.752;2023-01-29T06:23:39;14.27;;;5.47;;
72559;SDS011;62987;52.382;9.752;2023-01-29T06:26:09;12.60;;;5.75;;
72559;SDS011;62987;52.382;9.752;2023-01-29T06:28:41;14.10;;;5.22;;
72559;SDS011;62987;52.382;9.752;2023-01-29T06:31:10;17.95;;;5.65;;
72559;SDS011;62987;52.382;9.752;2023-01-29T06:33:58;13.75;;;6.00;;
72559;SDS011;62987;52.382;9.752;2023-01-29T06:36:26;13.80;;;5.50;;
72559;SDS011;62987;52.382;9.752;2023-01-29T06:38:54;16.52;;;6.15;;
72559;SDS011;62987;52.382;9.752;2023-01-29T06:41:22;14.77;;;5.88;;
72559;SDS011;62987;52.382;9.752;2023-01-29T06:43:52;14.98;;;5.35;;
72559;SDS011;62987;52.382;9.752;2023-01-29T06:46:20;13.93;;;5.85;;
72559;SDS011;62987;52.382;9.752;2023-01-29T06:48:48;15.82;;;6.43;;
72559;SDS011;62987;52.382;9.752;2023-01-29T06:51:16;12.20;;;5.05;;
72559;SDS011;62987;52.382;9.752;2023-01-29T06:53:45;17.30;;;6.45;;
72559;SDS011;62987;52.382;9.752;2023-01-29T06:56:12;13.77;;;6.15;;
72559;SDS011;62987;52.382;9.752;2023-01-29T06:58:40;15.23;;;6.50;;
72559;SDS011;62987;52.382;9.752;2023-01-29T07:01:10;15.10;;;6.28;;
72559;SDS011;62987;52.382;9.752;2023-01-29T07:03:58;21.65;;;7.28;;
72559;SDS011;62987;52.382;9.752;2023-01-29T07:06:27;18.42;;;6.40;;
72559;SDS011;62987;52.382;9.752;2023-01-29T07:08:55;15.02;;;5.70;;
72559;SDS011;62987;52.382;9.752;2023-01-29T07:11:25;15.40;;;6.97;;
72559;SDS011;62987;52.382;9.752;2023-01-29T07:13:53;21.70;;;7.53;;
72559;SDS011;62987;52.382;9.752;2023-01-29T07:16:22;15.60;;;6.00;;
72559;SDS011;62987;52.382;9.752;2023-01-29T07:18:52;18.85;;;7.07;;
72559;SDS011;62987;52.382;9.752;2023-01-29T07:21:20;17.15;;;6.70;;
72559;SDS011;62987;52.382;9.752;2023-01-29T07:23:48;19.92;;;9.27;;
72559;SDS011;62987;52.382;9.752;2023-01-29T07:26:16;18.45;;;7.70;;
72559;SDS011;62987;52.382;9.752;2023-01-29T07:28:46;19.80;;;8.15;;
72559;SDS011;62987;52.382;9.752;2023-01-29T07:31:16;16.00;;;7.35;;
72559;SDS011;62987;52.382;9.752;2023-01-29T07:33:46;20.45;;;8.23;;
72559;SDS011;62987;52.382;9.752;2023-01-29T07:36:14;22.60;;;8.43;;
72559;SDS011;62987;52.382;9.752;2023-01-29T07:38:42;23.10;;;7.68;;
72559;SDS011;62987;52.382;9.752;2023-01-29T07:41:10;20.95;;;8.95;;
72559;SDS011;62987;52.382;9.752;2023-01-29T07:43:41;20.23;;;8.18;;
72559;SDS011;62987;52.382;9.752;2023-01-29T07:46:09;19.45;;;9.20;;
72559;SDS011;62987;52.382;9.752;2023-01-29T07:48:37;19.98;;;8.30;;
72559;SDS011;62987;52.382;9.752;2023-01-29T07:51:06;23.65;;;8.55;;
72559;SDS011;62987;52.382;9.752;2023-01-29T07:53:36;21.30;;;8.65;;
72559;SDS011;62987;52.382;9.752;2023-01-29T07:56:05;22.65;;;9.27;;
72559;SDS011;62987;52.382;9.752;2023-01-29T07:58:33;20.98;;;8.45;;
72559;SDS011;62987;52.382;9.752;2023-01-29T08:01:04;22.05;;;9.13;;
72559;SDS011;62987;52.382;9.752;2023-01-29T08:03:33;21.60;;;8.55;;
72559;SDS011;62987;52.382;9.752;2023-01-29T08:06:01;19.95;;;7.22;;
72559;SDS011;62987;52.382;9.752;2023-01-29T08:08:31;21.40;;;7.75;;
72559;SDS011;62987;52.382;9.752;2023-01-29T08:10:59;25.48;;;9.05;;
72559;SDS011;62987;52.382;9.752;2023-01-29T08:13:28;22.52;;;7.45;;
72559;SDS011;62987;52.382;9.752;2023-01-29T08:15:58;24.63;;;8.98;;
72559;SDS011;62987;52.382;9.752;2023-01-29T08:18:27;22.30;;;9.57;;
72559;SDS011;62987;52.382;9.752;2023-01-29T08:20:59;23.85;;;9.80;;
72559;SDS011;62987;52.382;9.752;2023-01-29T08:23:31;22.10;;;8.57;;
72559;SDS011;62987;52.382;9.752;2023-01-29T08:26:00;15.35;;;7.70;;
72559;SDS011;62987;52.382;9.752;2023-01-29T08:28:29;19.58;;;9.30;;
72559;SDS011;62987;52.382;9.752;2023-01-29T08:30:59;20.75;;;8.60;;
72559;SDS011;62987;52.382;9.752;2023-01-29T08:33:27;22.25;;;8.65;;
72559;SDS011;62987;52.382;9.752;2023-01-29T08:36:04;25.85;;;9.18;;
72559;SDS011;62987;52.382;9.752;2023-01-29T08:38:35;21.48;;;9.10;;
72559;SDS011;62987;52.382;9.752;2023-01-29T08:41:03;23.83;;;8.88;;
72559;SDS011;62987;52.382;9.752;2023-01-29T08:43:32;24.13;;;8.82;;
72559;SDS011;62987;52.382;9.752;2023-01-29T08:46:01;17.85;;;7.88;;
72559;SDS011;62987;52.382;9.752;2023-01-29T08:48:30;22.33;;;8.43;;
72559;SDS011;62987;52.382;9.752;2023-01-29T08:50:59;23.30;;;8.82;;
72559;SDS011;62987;52.382;9.752;2023-01-29T08:53:30;24.00;;;11.05;;
72559;SDS011;62987;52.382;9.752;2023-01-29T08:55:59;20.20;;;9.82;;
72559;SDS011;62987;52.382;9.752;2023-01-29T08:58:27;20.70;;;9.15;;
72559;SDS011;62987;52.382;9.752;2023-01-29T09:00:55;22.50;;;9.88;;
72559;SDS011;62987;52.382;9.752;2023-01-29T09:03:23;26.70;;;9.60;;
72559;SDS011;62987;52.382;9.752;2023-01-29T09:05:51;20.08;;;8.15;;
72559;SDS011;62987;52.382;9.752;2023-01-29T09:08:19;25.55;;;9.52;;
72559;SDS011;62987;52.382;9.752;2023-01-29T09:10:47;24.88;;;10.30;;
72559;SDS011;62987;52.382;9.752;2023-01-29T09:13:17;23.27;;;9.15;;
72559;SDS011;62987;52.382;9.752;2023-01-29T09:15:44;22.40;;;8.75;;
72559;SDS011;62987;52.382;9.752;2023-01-29T09:18:14;19.35;;;7.78;;
72559;SDS011;62987;52.382;9.752;2023-01-29T09:20:44;20.25;;;8.68;;
72559;SDS011;62987;52.382;9.752;2023-01-29T09:23:14;24.15;;;10.27;;
72559;SDS011;62987;52.382;9.752;2023-01-29T09:25:43;19.50;;;7.70;;
72559;SDS011;62987;52.382;9.752;2023-01-29T09:28:11;26.38;;;8.77;;
72559;SDS011;62987;52.382;9.752;2023-01-29T09:30:41;19.17;;;8.55;;
72559;SDS011;62987;52.382;9.752;2023-01-29T09:33:09;19.05;;;8.05;;
72559;SDS011;62987;52.382;9.752;2023-01-29T09:35:39;17.85;;;8.10;;
72559;SDS011;62987;52.382;9.752;2023-01-29T09:38:07;17.50;;;7.45;;
72559;SDS011;62987;52.382;9.752;2023-01-29T09:40:37;21.42;;;8.35;;
72559;SDS011;62987;52.382;9.752;2023-01-29T09:43:17;18.95;;;8.30;;
72559;SDS011;62987;52.382;9.752;2023-01-29T09:45:51;21.08;;;8.27;;
72559;SDS011;62987;52.382;9.752;2023-01-29T09:48:23;22.02;;;9.65;;
72559;SDS011;62987;52.382;9.752;2023-01-29T09:50:54;18.35;;;8.27;;
72559;SDS011;62987;52.382;9.752;2023-01-29T09:53:28;22.52;;;8.90;;
72559;SDS011;62987;52.382;9.752;2023-01-29T09:56:02;19.23;;;8.02;;
72559;SDS011;62987;52.382;9.752;2023-01-29T09:58:33;16.75;;;7.10;;
72559;SDS011;62987;52.382;9.752;2023-01-29T10:01:07;19.90;;;8.35;;
72559;SDS011;62987;52.382;9.752;2023-01-29T10:03:43;18.15;;;8.80;;
72559;SDS011;62987;52.382;9.752;2023-01-29T10:06:27;14.77;;;6.85;;
72559;SDS011;62987;52.382;9.752;2023-01-29T10:15:13;16.92;;;8.27;;
72559;SDS011;62987;52.382;9.752;2023-01-29T10:18:02;21.05;;;7.43;;
72559;SDS011;62987;52.382;9.752;2023-01-29T10:20:50;20.40;;;8.32;;
72559;SDS011;62987;52.382;9.752;2023-01-29T10:23:25;16.23;;;7.20;;
72559;SDS011;62987;52.382;9.752;2023-01-29T10:25:57;22.38;;;8.18;;
72559;SDS011;62987;52.382;9.752;2023-01-29T10:28:26;16.60;;;7.30;;
72559;SDS011;62987;52.382;9.752;2023-01-29T10:30:59;21.10;;;8.20;;
72559;SDS011;62987;52.382;9.752;2023-01-29T10:33:30;23.25;;;10.40;;
72559;SDS011;62987;52.382;9.752;2023-01-29T10:36:24;20.35;;;7.65;;
72559;SDS011;62987;52.382;9.752;2023-01-29T10:38:55;18.48;;;8.45;;
72559;SDS011;62987;52.382;9.752;2023-01-29T10:41:26;18.80;;;8.50;;
72559;SDS011;62987;52.382;9.752;2023-01-29T10:44:09;21.50;;;8.60;;
72559;SDS011;62987;52.382;9.752;2023-01-29T10:46:51;19.23;;;7.22;;
72559;SDS011;62987;52.382;9.752;2023-01-29T10:49:36;19.10;;;7.18;;
72559;SDS011;62987;52.382;9.752;2023-01-29T10:52:21;20.48;;;7.20;;
72559;SDS011;62987;52.382;9.752;2023-01-29T10:55:02;18.48;;;6.13;;
72559;SDS011;62987;52.382;9.752;2023-01-29T10:57:47;17.20;;;6.25;;
72559;SDS011;62987;52.382;9.752;2023-01-29T11:00:25;21.20;;;5.93;;
72559;SDS011;62987;52.382;9.752;2023-01-29T11:02:57;19.08;;;7.97;;
72559;SDS011;62987;52.382;9.752;2023-01-29T11:05:56;19.40;;;7.07;;
72559;SDS011;62987;52.382;9.752;2023-01-29T11:08:32;20.50;;;7.40;;
72559;SDS011;62987;52.382;9.752;2023-01-29T11:11:07;16.98;;;7.72;;
72559;SDS011;62987;52.382;9.752;2023-01-29T11:13:40;16.10;;;7.05;;
72559;SDS011;62987;52.382;9.752;2023-01-29T11:16:11;19.30;;;7.05;;
72559;SDS011;62987;52.382;9.752;2023-01-29T11:18:52;18.52;;;7.93;;
72559;SDS011;62987;52.382;9.752;2023-01-29T11:21:24;15.90;;;6.20;;
72559;SDS011;62987;52.382;9.752;2023-01-29T11:24:04;18.35;;;5.75;;
72559;SDS011;62987;52.382;9.752;2023-01-29T11:26:38;17.95;;;6.75;;
72559;SDS011;62987;52.382;9.752;2023-01-29T11:32:02;15.85;;;6.28;;
72559;SDS011;62987;52.382;9.752;2023-01-29T11:34:32;14.95;;;5.88;;
72559;SDS011;62987;52.382;9.752;2023-01-29T11:37:03;14.07;;;6.85;;
72559;SDS011;62987;52.382;9.752;2023-01-29T11:39:32;19.15;;;8.15;;
72559;SDS011;62987;52.382;9.752;2023-01-29T11:42:00;15.95;;;7.45;;
72559;SDS011;62987;52.382;9.752;2023-01-29T11:44:31;16.70;;;6.97;;
72559;SDS011;62987;52.382;9.752;2023-01-29T11:47:08;19.02;;;7.95;;
72559;SDS011;62987;52.382;9.752;2023-01-29T11:49:39;16.48;;;6.57;;
72559;SDS011;62987;52.382;9.752;2023-01-29T11:52:13;12.55;;;5.47;;
72559;SDS011;62987;52.382;9.752;2023-01-29T11:54:44;13.70;;;5.82;;
72559;SDS011;62987;52.382;9.752;2023-01-29T11:57:20;15.70;;;5.80;;
72559;SDS011;62987;52.382;9.752;2023-01-29T11:59:55;17.30;;;7.05;;
72559;SDS011;62987;52.382;9.752;2023-01-29T12:02:27;17.95;;;6.93;;
72559;SDS011;62987;52.382;9.752;2023-01-29T12:05:02;16.90;;;6.93;;
72559;SDS011;62987;52.382;9.752;2023-01-29T12:07:34;18.52;;;7.57;;
72559;SDS011;62987;52.382;9.752;2023-01-29T12:13:02;18.00;;;7.32;;
72559;SDS011;62987;52.382;9.752;2023-01-29T12:15:31;17.25;;;7.28;;
72559;SDS011;62987;52.382;9.752;2023-01-29T12:18:02;18.17;;;7.63;;
72559;SDS011;62987;52.382;9.752;2023-01-29T12:20:36;16.77;;;8.15;;
72559;SDS011;62987;52.382;9.752;2023-01-29T12:23:13;23.50;;;7.85;;
72559;SDS011;62987;52.382;9.752;2023-01-29T12:25:54;21.63;;;8.73;;
72559;SDS011;62987;52.382;9.752;2023-01-29T12:28:30;20.05;;;8.85;;
72559;SDS011;62987;52.382;9.752;2023-01-29T12:31:15;18.08;;;8.73;;
72559;SDS011;62987;52.382;9.752;2023-01-29T12:33:57;18.40;;;7.72;;
72559;SDS011;62987;52.382;9.752;2023-01-29T12:36:33;16.38;;;7.13;;
72559;SDS011;62987;52.382;9.752;2023-01-29T12:39:07;21.92;;;7.50;;
72559;SDS011;62987;52.382;9.752;2023-01-29T12:41:38;12.98;;;6.25;;
72559;SDS011;62987;52.382;9.752;2023-01-29T12:44:12;21.05;;;7.45;;
72559;SDS011;62987;52.382;9.752;2023-01-29T12:46:46;19.00;;;6.45;;
72559;SDS011;62987;52.382;9.752;2023-01-29T12:49:18;30.17;;;9.85;;
72559;SDS011;62987;52.382;9.752;2023-01-29T12:51:52;21.13;;;7.97;;
72559;SDS011;62987;52.382;9.752;2023-01-29T12:54:35;18.10;;;8.00;;
72559;SDS011;62987;52.382;9.752;2023-01-29T12:57:07;16.90;;;6.60;;
72559;SDS011;62987;52.382;9.752;2023-01-29T12:59:41;17.60;;;8.18;;
72559;SDS011;62987;52.382;9.752;2023-01-29T13:02:19;17.08;;;7.13;;
72559;SDS011;62987;52.382;9.752;2023-01-29T13:04:56;16.98;;;7.20;;
72559;SDS011;62987;52.382;9.752;2023-01-29T13:07:30;20.88;;;7.28;;
72559;SDS011;62987;52.382;9.752;2023-01-29T13:10:02;17.92;;;7.35;;
72559;SDS011;62987;52.382;9.752;2023-01-29T13:12:34;19.50;;;7.60;;
72559;SDS011;62987;52.382;9.752;2023-01-29T13:15:11;17.33;;;7.15;;
72559;SDS011;62987;52.382;9.752;2023-01-29T13:17:49;15.43;;;7.07;;
72559;SDS011;62987;52.382;9.752;2023-01-29T13:20:22;16.48;;;5.95;;
72559;SDS011;62987;52.382;9.752;2023-01-29T13:22:57;12.90;;;5.60;;
72559;SDS011;62987;52.382;9.752;2023-01-29T13:25:34;17.42;;;8.23;;
72559;SDS011;62987;52.382;9.752;2023-01-29T13:28:02;16.00;;;5.85;;
72559;SDS011;62987;52.382;9.752;2023-01-29T13:30:30;17.17;;;6.88;;
72559;SDS011;62987;52.382;9.752;2023-01-29T13:33:00;19.85;;;7.55;;
72559;SDS011;62987;52.382;9.752;2023-01-29T13:35:38;18.63;;;7.72;;
72559;SDS011;62987;52.382;9.752;2023-01-29T13:38:19;18.85;;;6.60;;
72559;SDS011;62987;52.382;9.752;2023-01-29T13:40:53;14.45;;;6.85;;
72559;SDS011;62987;52.382;9.752;2023-01-29T13:43:25;14.45;;;6.38;;
72559;SDS011;62987;52.382;9.752;2023-01-29T13:45:58;21.30;;;8.80;;
72559;SDS011;62987;52.382;9.752;2023-01-29T13:48:39;16.52;;;7.30;;
72559;SDS011;62987;52.382;9.752;2023-01-29T13:51:09;15.00;;;6.55;;
72559;SDS011;62987;52.382;9.752;2023-01-29T13:53:42;17.13;;;6.55;;
72559;SDS011;62987;52.382;9.752;2023-01-29T13:56:29;19.02;;;7.20;;
72559;SDS011;62987;52.382;9.752;2023-01-29T13:59:20;14.77;;;6.43;;
72559;SDS011;62987;52.382;9.752;2023-01-29T14:02:02;14.00;;;5.95;;
72559;SDS011;62987;52.382;9.752;2023-01-29T14:04:46;15.68;;;6.70;;
72559;SDS011;62987;52.382;9.752;2023-01-29T14:10:17;14.70;;;6.10;;
72559;SDS011;62987;52.382;9.752;2023-01-29T14:12:49;19.25;;;7.40;;
72559;SDS011;62987;52.382;9.752;2023-01-29T14:15:28;16.00;;;6.82;;
72559;SDS011;62987;52.382;9.752;2023-01-29T14:18:02;15.10;;;5.47;;
72559;SDS011;62987;52.382;9.752;2023-01-29T14:23:44;14.15;;;5.32;;
72559;SDS011;62987;52.382;9.752;2023-01-29T14:26:18;18.05;;;6.75;;
72559;SDS011;62987;52.382;9.752;2023-01-29T14:29:02;17.95;;;7.30;;
72559;SDS011;62987;52.382;9.752;2023-01-29T14:31:40;13.85;;;6.82;;
72559;SDS011;62987;52.382;9.752;2023-01-29T14:34:14;14.80;;;6.78;;
72559;SDS011;62987;52.382;9.752;2023-01-29T14:36:47;15.82;;;6.07;;
72559;SDS011;62987;52.382;9.752;2023-01-29T14:39:22;17.13;;;7.25;;
72559;SDS011;62987;52.382;9.752;2023-01-29T14:41:57;16.15;;;6.80;;
72559;SDS011;62987;52.382;9.752;2023-01-29T14:47:16;12.13;;;5.03;;
72559;SDS011;62987;52.382;9.752;2023-01-29T14:49:49;16.50;;;6.97;;
72559;SDS011;62987;52.382;9.752;2023-01-29T14:52:19;13.85;;;4.65;;
72559;SDS011;62987;52.382;9.752;2023-01-29T14:54:52;23.35;;;8.02;;
72559;SDS011;62987;52.382;9.752;2023-01-29T14:57:24;16.55;;;7.63;;
72559;SDS011;62987;52.382;9.752;2023-01-29T14:59:57;18.77;;;7.95;;
72559;SDS011;62987;52.382;9.752;2023-01-29T15:02:31;18.05;;;7.53;;
72559;SDS011;62987;52.382;9.752;2023-01-29T15:05:06;20.15;;;6.28;;
72559;SDS011;62987;52.382;9.752;2023-01-29T15:07:38;15.32;;;7.10;;
72559;SDS011;62987;52.382;9.752;2023-01-29T15:10:13;16.92;;;7.35;;
72559;SDS011;62987;52.382;9.752;2023-01-29T15:12:49;18.00;;;7.07;;
72559;SDS011;62987;52.382;9.752;2023-01-29T15:15:29;21.85;;;8.88;;
72559;SDS011;62987;52.382;9.752;2023-01-29T15:18:02;17.23;;;7.28;;
72559;SDS011;62987;52.382;9.752;2023-01-29T15:20:35;23.48;;;9.05;;
72559;SDS011;62987;52.382;9.752;2023-01-29T15:23:20;16.55;;;6.97;;
72559;SDS011;62987;52.382;9.752;2023-01-29T15:25:52;18.67;;;6.78;;
72559;SDS011;62987;52.382;9.752;2023-01-29T15:28:23;20.52;;;7.47;;
72559;SDS011;62987;52.382;9.752;2023-01-29T15:30:54;24.40;;;9.98;;
72559;SDS011;62987;52.382;9.752;2023-01-29T15:33:24;24.63;;;8.15;;
72559;SDS011;62987;52.382;9.752;2023-01-29T15:35:54;20.63;;;7.90;;
72559;SDS011;62987;52.382;9.752;2023-01-29T15:38:33;19.38;;;8.90;;
72559;SDS011;62987;52.382;9.752;2023-01-29T15:41:02;18.23;;;8.00;;
72559;SDS011;62987;52.382;9.752;2023-01-29T15:43:43;22.98;;;8.02;;